createdAt,value
2022-12-22T00:03:42.479Z,12.13
2022-12-22T00:08:45.662Z,12.68
2022-12-22T00:13:47.401Z,13.15
2022-12-22T00:18:50.945Z,13.60
2022-12-22T00:23:54.346Z,13.73
2022-12-22T00:28:56.293Z,16.10
2022-12-22T00:33:58.626Z,13.48
2022-12-22T00:39:01.768Z,13.27
2022-12-22T00:44:05.415Z,13.80
2022-12-22T00:49:10.635Z,13.65
2022-12-22T00:59:23.173Z,12.73
2022-12-22T01:04:24.995Z,14.15
2022-12-22T01:09:28.436Z,13.48
2022-12-22T01:14:50.443Z,14.43
2022-12-22T01:19:52.759Z,13.98
2022-12-22T01:25:06.907Z,14.30
2022-12-22T01:30:24.156Z,14.07
2022-12-22T01:35:32.923Z,15.20
2022-12-22T01:40:37.337Z,15.30
2022-12-22T01:45:51.930Z,15.77
2022-12-22T01:51:10.174Z,15.53
2022-12-22T01:56:22.610Z,14.90
2022-12-22T02:01:56.414Z,16.12
2022-12-22T02:07:16.830Z,14.60
2022-12-22T02:12:28.881Z,15.07
2022-12-22T02:17:39.117Z,18.05
2022-12-22T02:23:00.601Z,15.38
2022-12-22T02:28:07.359Z,16.42
2022-12-22T02:33:10.313Z,16.55
2022-12-22T02:38:20.818Z,16.90
2022-12-22T02:43:39.997Z,16.30
2022-12-22T02:48:50.362Z,18.55
2022-12-22T02:54:09.110Z,16.85
2022-12-22T02:59:12.274Z,16.55
2022-12-22T03:04:14.094Z,16.37
2022-12-22T03:09:15.954Z,16.17
2022-12-22T03:14:19.079Z,15.82
2022-12-22T03:24:37.847Z,16.45
2022-12-22T03:29:43.293Z,14.50
2022-12-22T03:34:45.179Z,16.08
2022-12-22T03:39:46.995Z,15.13
2022-12-22T03:44:50.212Z,16.37
2022-12-22T03:49:53.551Z,15.70
2022-12-22T03:54:55.328Z,14.05
2022-12-22T03:59:58.411Z,14.95
2022-12-22T04:05:00.178Z,14.77
2022-12-22T04:10:02.148Z,13.45
2022-12-22T04:15:15.351Z,13.57
2022-12-22T04:20:17.899Z,13.52
2022-12-22T04:25:19.712Z,13.05
2022-12-22T04:30:23.138Z,12.70
2022-12-22T04:35:24.906Z,12.57
2022-12-22T04:40:26.712Z,12.57
2022-12-22T04:45:30.123Z,11.52
2022-12-22T04:50:31.922Z,12.75
2022-12-22T04:55:33.685Z,12.82
2022-12-22T05:00:37.023Z,12.70
2022-12-22T05:05:39.811Z,13.13
2022-12-22T05:10:41.713Z,12.02
2022-12-22T05:15:44.907Z,12.35
2022-12-22T05:20:46.699Z,12.70
2022-12-22T05:25:48.552Z,12.15
2022-12-22T05:30:51.940Z,12.45
2022-12-22T05:35:56.170Z,12.15
2022-12-22T05:41:03.594Z,13.05
2022-12-22T05:46:09.395Z,12.52
2022-12-22T05:51:11.366Z,11.82
2022-12-22T06:01:29.813Z,10.90
2022-12-22T06:07:05.312Z,10.23
2022-12-22T06:17:24.281Z,10.77
2022-12-22T06:22:26.041Z,10.70
2022-12-22T06:27:57.772Z,10.48
2022-12-22T06:33:01.501Z,10.63
2022-12-22T06:38:03.372Z,10.38
2022-12-22T06:43:08.718Z,9.60
2022-12-22T06:48:12.825Z,9.95
2022-12-22T06:53:14.649Z,9.32
2022-12-22T06:58:16.466Z,10.70
2022-12-22T07:03:19.713Z,9.43
2022-12-22T07:08:21.592Z,8.98
2022-12-22T07:13:23.919Z,10.30
2022-12-22T07:18:27.473Z,8.93
2022-12-22T07:23:29.927Z,9.80
2022-12-22T07:28:32.771Z,9.68
2022-12-22T07:33:35.962Z,9.73
2022-12-22T07:38:39.584Z,10.73
2022-12-22T07:43:41.330Z,10.77
2022-12-22T07:48:44.448Z,10.70
2022-12-22T07:53:46.257Z,10.68
2022-12-22T07:58:47.998Z,10.40
2022-12-22T08:03:51.298Z,10.85
2022-12-22T08:08:53.072Z,9.55
2022-12-22T08:14:01.021Z,9.65
2022-12-22T08:19:04.788Z,10.05
2022-12-22T08:24:07.299Z,9.13
2022-12-22T08:29:12.325Z,9.90
2022-12-22T08:34:16.483Z,10.20
2022-12-22T08:39:20.693Z,9.50
2022-12-22T08:44:25.011Z,8.70
2022-12-22T08:49:28.325Z,8.80
2022-12-22T08:54:30.196Z,9.80
2022-12-22T08:59:31.936Z,9.80
2022-12-22T09:04:36.323Z,10.77
2022-12-22T09:09:38.120Z,10.80
2022-12-22T09:14:39.851Z,10.02
2022-12-22T09:19:42.989Z,9.13
2022-12-22T09:24:44.821Z,10.85
2022-12-22T09:29:46.703Z,10.55
2022-12-22T09:34:49.974Z,10.43
2022-12-22T09:39:51.662Z,10.40
2022-12-22T09:44:53.408Z,10.65
2022-12-22T09:49:57.703Z,10.13
2022-12-22T09:54:59.737Z,11.30
2022-12-22T10:00:06.991Z,10.35
2022-12-22T10:11:05.508Z,10.93
2022-12-22T10:21:46.695Z,10.10
2022-12-22T10:27:02.262Z,10.05
2022-12-22T10:32:19.625Z,10.85
2022-12-22T10:37:31.566Z,11.20
2022-12-22T10:42:54.149Z,9.23
2022-12-22T10:48:03.942Z,9.55
2022-12-22T10:53:37.102Z,9.25
2022-12-22T10:58:49.009Z,9.30
2022-12-22T11:09:36.048Z,8.95
2022-12-22T11:14:50.957Z,9.00
2022-12-22T11:20:39.444Z,9.63
2022-12-22T11:59:19.567Z,9.80
2022-12-22T12:10:25.352Z,9.07
2022-12-22T12:15:31.772Z,9.07
2022-12-22T12:20:46.199Z,9.15
2022-12-22T12:25:57.484Z,8.48
2022-12-22T12:31:01.481Z,8.73
2022-12-22T12:36:11.820Z,9.40
2022-12-22T12:41:39.198Z,9.38
2022-12-22T12:47:44.677Z,9.43
2022-12-22T12:53:17.083Z,9.40
2022-12-22T13:04:55.612Z,9.00
2022-12-22T13:10:35.669Z,9.15
2022-12-22T13:16:39.512Z,8.70
2022-12-22T13:21:53.326Z,9.57
2022-12-22T13:27:04.708Z,9.77
2022-12-22T13:32:23.443Z,11.12
2022-12-22T13:37:27.821Z,10.27
2022-12-22T13:42:34.325Z,15.63
2022-12-22T13:47:40.698Z,10.10
2022-12-22T13:52:42.503Z,9.52
2022-12-22T13:57:45.671Z,9.80
2022-12-22T14:02:47.934Z,9.25
2022-12-22T14:08:01.107Z,9.45
2022-12-22T14:13:10.931Z,9.45
2022-12-22T14:18:15.041Z,10.40
2022-12-22T14:23:20.701Z,8.98
2022-12-22T14:28:27.021Z,9.57
2022-12-22T14:33:32.454Z,9.70
2022-12-22T14:38:39.669Z,9.80
2022-12-22T14:43:48.954Z,9.98
2022-12-22T14:48:50.913Z,11.63
2022-12-22T14:53:55.546Z,11.00
2022-12-22T14:59:28.261Z,9.55
2022-12-22T15:04:31.474Z,10.50
2022-12-22T15:10:13.793Z,10.32
2022-12-22T15:15:08.922Z,10.05
2022-12-22T15:20:17.647Z,10.48
2022-12-22T15:25:21.193Z,12.00
2022-12-22T15:30:30.161Z,10.10
2022-12-22T15:35:33.455Z,10.30
2022-12-22T15:40:35.460Z,10.82
2022-12-22T15:45:39.181Z,10.50
2022-12-22T15:50:42.818Z,10.05
2022-12-22T15:55:46.107Z,10.15
2022-12-22T16:00:52.700Z,10.45
2022-12-22T16:12:30.752Z,10.27
2022-12-22T16:17:46.510Z,10.37
2022-12-22T16:22:56.266Z,10.10
2022-12-22T16:28:00.924Z,10.60
2022-12-22T16:33:04.587Z,10.73
2022-12-22T16:38:07.096Z,11.40
2022-12-22T16:48:42.751Z,12.73
2022-12-22T16:53:44.593Z,12.70
2022-12-22T16:58:47.349Z,12.65
2022-12-22T17:03:50.573Z,13.10
2022-12-22T17:08:52.473Z,12.68
2022-12-22T17:14:01.655Z,11.73
2022-12-22T17:19:11.234Z,11.60
2022-12-22T17:47:45.511Z,12.85
2022-12-22T18:15:34.210Z,15.02
2022-12-22T18:37:18.966Z,14.07
2022-12-22T18:42:22.614Z,14.57
2022-12-22T18:47:24.425Z,15.55
2022-12-22T18:52:42.512Z,17.67
2022-12-22T18:57:45.700Z,13.73
2022-12-22T19:02:49.120Z,13.48
2022-12-22T19:07:55.882Z,14.98
2022-12-22T20:11:49.532Z,15.48
2022-12-22T20:16:59.039Z,17.77
2022-12-22T20:22:00.830Z,15.07
2022-12-22T20:27:02.609Z,15.90
2022-12-22T20:32:12.655Z,15.95
2022-12-22T20:42:27.374Z,16.58
2022-12-22T20:53:14.407Z,14.68
2022-12-22T20:58:40.781Z,14.10
2022-12-22T21:03:52.369Z,14.75
2022-12-22T21:15:16.455Z,16.25
2022-12-22T21:21:07.468Z,15.20
2022-12-22T21:37:39.614Z,14.60
2022-12-22T21:42:51.825Z,16.65
2022-12-22T21:47:53.930Z,16.40
2022-12-22T21:53:33.246Z,15.63
2022-12-22T21:58:48.292Z,15.73
2022-12-22T22:04:38.584Z,16.05
2022-12-22T22:09:41.661Z,16.98
2022-12-22T22:14:56.897Z,17.33
2022-12-22T22:19:58.915Z,18.90
2022-12-22T22:25:04.159Z,17.52
2022-12-22T22:36:18.195Z,17.80
2022-12-22T22:47:13.021Z,16.87
2022-12-22T22:52:14.934Z,18.02
2022-12-22T23:09:21.832Z,18.60
2022-12-22T23:14:25.464Z,20.98
2022-12-22T23:19:27.256Z,20.70
2022-12-22T23:24:30.489Z,19.00
2022-12-22T23:29:32.233Z,19.77
2022-12-22T23:34:34.036Z,20.45
2022-12-22T23:39:37.188Z,21.02
2022-12-22T23:44:38.928Z,19.17
2022-12-22T23:49:40.692Z,17.50
2022-12-22T23:54:43.887Z,18.10
2022-12-22T23:59:45.685Z,17.02
